createdAt,value
2023-05-04T00:23:39.954Z,101506.48
2023-05-04T00:55:26.211Z,101497.59
2023-05-04T00:59:39.808Z,101504.02
2023-05-04T01:12:45.557Z,101502.75
2023-05-04T01:16:50.922Z,101504.46
2023-05-04T01:20:53.873Z,101501.67
2023-05-04T01:24:48.989Z,101502.70
2023-05-04T01:28:38.847Z,101498.55
2023-05-04T01:32:14.021Z,101503.16
2023-05-04T01:36:13.679Z,101501.70
2023-05-04T01:39:35.897Z,101501.94
2023-05-04T01:43:32.515Z,101498.95
2023-05-04T01:48:02.231Z,101498.15
2023-05-04T01:51:23.533Z,101498.09
2023-05-04T01:55:19.785Z,101494.90
2023-05-04T01:58:57.782Z,101492.11
2023-05-04T02:02:55.035Z,101490.23
2023-05-04T02:06:12.369Z,101492.67
2023-05-04T02:09:41.297Z,101497.36
2023-05-04T02:13:10.829Z,101496.39
2023-05-04T02:16:25.271Z,101496.14
2023-05-04T02:20:16.774Z,101497.98
2023-05-04T02:23:45.404Z,101492.41
2023-05-04T02:27:37.018Z,101497.10
2023-05-04T02:31:48.444Z,101497.20
2023-05-04T02:35:17.757Z,101499.63
2023-05-04T02:38:48.072Z,101499.14
2023-05-04T02:42:15.154Z,101502.52
2023-05-04T02:46:00.881Z,101497.42
2023-05-04T02:49:20.532Z,101497.64
2023-05-04T02:52:59.566Z,101499.52
2023-05-04T02:56:20.366Z,101497.86
2023-05-04T02:59:16.859Z,101492.55
2023-05-04T03:03:04.145Z,101491.39
2023-05-04T03:06:42.985Z,101495.22
2023-05-04T03:10:13.202Z,101498.27
2023-05-04T03:13:48.379Z,101498.25
2023-05-04T03:17:24.675Z,101491.75
2023-05-04T03:20:24.596Z,101493.69
2023-05-04T03:23:45.277Z,101499.22
2023-05-04T03:26:57.491Z,101496.10
2023-05-04T03:30:16.371Z,101497.90
2023-05-04T03:33:44.185Z,101496.34
2023-05-04T03:36:35.894Z,101495.56
2023-05-04T03:39:53.922Z,101495.10
2023-05-04T03:43:15.919Z,101497.44
2023-05-04T03:46:15.437Z,101498.77
2023-05-04T03:50:05.356Z,101498.80
2023-05-04T03:54:17.321Z,101498.42
2023-05-04T03:57:58.213Z,101495.23
2023-05-04T04:01:32.805Z,101496.41
2023-05-04T04:04:42.087Z,101493.98
2023-05-04T04:08:10.908Z,101494.83
2023-05-04T04:11:17.070Z,101496.90
2023-05-04T04:14:37.777Z,101496.55
2023-05-04T04:18:37.186Z,101497.78
2023-05-04T04:22:56.936Z,101495.56
2023-05-04T04:27:12.666Z,101497.70
2023-05-04T04:30:32.575Z,101497.41
2023-05-04T14:01:17.472Z,101211.22
2023-05-04T14:03:46.903Z,101217.73
2023-05-04T14:06:15.475Z,101216.71
2023-05-04T14:08:44.045Z,101212.73
2023-05-04T14:11:12.507Z,101209.88
2023-05-04T14:13:41.068Z,101197.19
2023-05-04T14:16:10.470Z,101187.04
2023-05-04T14:18:56.905Z,101182.15
2023-05-04T14:22:22.496Z,101184.86
2023-05-04T14:25:46.522Z,101184.73
2023-05-04T14:28:15.926Z,101188.27
2023-05-04T14:31:25.332Z,101181.23
2023-05-04T14:34:13.320Z,101181.75
2023-05-04T15:15:54.918Z,101135.64
2023-05-04T15:18:24.364Z,101140.41
2023-05-04T15:20:52.980Z,101136.74
2023-05-04T15:23:21.785Z,101143.33
2023-05-04T15:25:50.307Z,101143.61
2023-05-04T15:28:22.818Z,101138.48
2023-05-04T15:30:51.342Z,101138.15
2023-05-04T15:33:19.847Z,101133.50
2023-05-04T15:35:48.420Z,101128.62
2023-05-04T15:38:18.344Z,101128.30
2023-05-04T15:40:46.806Z,101118.45
2023-05-04T15:43:15.520Z,101115.27
2023-05-04T15:45:44.034Z,101117.67
2023-05-04T15:48:12.655Z,101117.59
2023-05-04T15:51:19.185Z,101118.86
